sensor_id;sensor_type;location;lat;lon;timestamp;temperature;humidity
3866;DHT22;1948;53.250;10.412;2023-10-31T00:02:20;12.80;99.90
3866;DHT22;1948;53.250;10.412;2023-10-31T00:04:54;12.80;99.90
3866;DHT22;1948;53.250;10.412;2023-10-31T00:07:49;12.70;99.90
3866;DHT22;1948;53.250;10.412;2023-10-31T00:10:16;12.70;99.90
3866;DHT22;1948;53.250;10.412;2023-10-31T00:12:44;12.70;99.90
3866;DHT22;1948;53.250;10.412;2023-10-31T00:15:14;12.70;99.90
3866;DHT22;1948;53.250;10.412;2023-10-31T00:17:44;12.70;99.90
3866;DHT22;1948;53.250;10.412;2023-10-31T00:20:12;12.70;99.90
3866;DHT22;1948;53.250;10.412;2023-10-31T00:22:39;12.70;99.90
3866;DHT22;1948;53.250;10.412;2023-10-31T00:25:06;12.70;99.90
3866;DHT22;1948;53.250;10.412;2023-10-31T00:27:35;12.70;99.90
3866;DHT22;1948;53.250;10.412;2023-10-31T00:30:03;12.70;99.90
3866;DHT22;1948;53.250;10.412;2023-10-31T00:32:30;12.70;99.90
3866;DHT22;1948;53.250;10.412;2023-10-31T00:34:58;12.70;99.90
3866;DHT22;1948;53.250;10.412;2023-10-31T00:37:26;12.80;99.90
3866;DHT22;1948;53.250;10.412;2023-10-31T00:39:55;12.80;99.90
3866;DHT22;1948;53.250;10.412;2023-10-31T00:42:23;12.70;99.90
3866;DHT22;1948;53.250;10.412;2023-10-31T00:44:53;12.80;99.90
3866;DHT22;1948;53.250;10.412;2023-10-31T00:47:20;12.70;99.90
3866;DHT22;1948;53.250;10.412;2023-10-31T00:49:50;12.70;99.90
3866;DHT22;1948;53.250;10.412;2023-10-31T00:52:20;12.70;99.90
3866;DHT22;1948;53.250;10.412;2023-10-31T00:54:47;12.70;99.90
3866;DHT22;1948;53.250;10.412;2023-10-31T00:57:14;12.70;99.90
3866;DHT22;1948;53.250;10.412;2023-10-31T00:59:41;12.70;99.90
3866;DHT22;1948;53.250;10.412;2023-10-31T01:02:09;12.70;99.90
3866;DHT22;1948;53.250;10.412;2023-10-31T01:04:36;12.70;99.90
3866;DHT22;1948;53.250;10.412;2023-10-31T01:07:04;12.70;99.90
3866;DHT22;1948;53.250;10.412;2023-10-31T01:09:33;12.80;99.90
3866;DHT22;1948;53.250;10.412;2023-10-31T01:12:03;12.80;99.90
3866;DHT22;1948;53.250;10.412;2023-10-31T01:14:33;12.80;99.90
3866;DHT22;1948;53.250;10.412;2023-10-31T01:17:04;12.80;99.90
3866;DHT22;1948;53.250;10.412;2023-10-31T01:19:31;12.80;99.90
3866;DHT22;1948;53.250;10.412;2023-10-31T01:21:58;12.80;99.90
3866;DHT22;1948;53.250;10.412;2023-10-31T01:24:28;12.80;99.90
3866;DHT22;1948;53.250;10.412;2023-10-31T01:26:55;12.80;99.90
3866;DHT22;1948;53.250;10.412;2023-10-31T01:29:24;12.70;99.90
3866;DHT22;1948;53.250;10.412;2023-10-31T01:31:51;12.80;99.90
3866;DHT22;1948;53.250;10.412;2023-10-31T01:34:31;12.80;99.90
3866;DHT22;1948;53.250;10.412;2023-10-31T01:37:03;12.70;99.90
3866;DHT22;1948;53.250;10.412;2023-10-31T01:39:36;12.70;99.90
3866;DHT22;1948;53.250;10.412;2023-10-31T01:42:03;12.60;99.90
3866;DHT22;1948;53.250;10.412;2023-10-31T01:44:31;12.60;99.90
3866;DHT22;1948;53.250;10.412;2023-10-31T01:46:58;12.70;99.90
3866;DHT22;1948;53.250;10.412;2023-10-31T01:49:28;12.60;99.90
3866;DHT22;1948;53.250;10.412;2023-10-31T01:51:55;12.70;99.90
3866;DHT22;1948;53.250;10.412;2023-10-31T01:54:22;12.70;99.90
3866;DHT22;1948;53.250;10.412;2023-10-31T01:56:49;12.70;99.90
3866;DHT22;1948;53.250;10.412;2023-10-31T01:59:20;12.60;99.90
3866;DHT22;1948;53.250;10.412;2023-10-31T02:01:49;12.60;99.90
3866;DHT22;1948;53.250;10.412;2023-10-31T02:04:17;12.70;99.90
3866;DHT22;1948;53.250;10.412;2023-10-31T02:06:44;12.60;99.90
3866;DHT22;1948;53.250;10.412;2023-10-31T02:09:11;12.60;99.90
3866;DHT22;1948;53.250;10.412;2023-10-31T02:11:38;12.60;99.90
3866;DHT22;1948;53.250;10.412;2023-10-31T02:14:08;12.60;99.90
3866;DHT22;1948;53.250;10.412;2023-10-31T02:16:37;12.50;99.90
3866;DHT22;1948;53.250;10.412;2023-10-31T02:19:05;12.50;99.90
3866;DHT22;1948;53.250;10.412;2023-10-31T02:21:33;12.50;99.90
3866;DHT22;1948;53.250;10.412;2023-10-31T02:24:02;12.60;99.90
3866;DHT22;1948;53.250;10.412;2023-10-31T02:26:34;12.60;99.90
3866;DHT22;1948;53.250;10.412;2023-10-31T02:29:04;12.60;99.90
3866;DHT22;1948;53.250;10.412;2023-10-31T02:31:32;12.50;99.90
3866;DHT22;1948;53.250;10.412;2023-10-31T02:33:59;12.50;99.90
3866;DHT22;1948;53.250;10.412;2023-10-31T02:36:26;12.50;99.90
3866;DHT22;1948;53.250;10.412;2023-10-31T02:38:54;12.60;99.90
3866;DHT22;1948;53.250;10.412;2023-10-31T02:41:21;12.60;99.90
3866;DHT22;1948;53.250;10.412;2023-10-31T02:43:48;12.60;99.90
3866;DHT22;1948;53.250;10.412;2023-10-31T02:46:15;12.60;99.90
3866;DHT22;1948;53.250;10.412;2023-10-31T02:48:43;12.60;99.90
3866;DHT22;1948;53.250;10.412;2023-10-31T02:51:13;12.70;99.90
3866;DHT22;1948;53.250;10.412;2023-10-31T02:53:43;12.70;99.90
3866;DHT22;1948;53.250;10.412;2023-10-31T02:56:10;12.70;99.90
3866;DHT22;1948;53.250;10.412;2023-10-31T02:58:37;12.70;99.90
3866;DHT22;1948;53.250;10.412;2023-10-31T03:01:04;12.70;99.90
3866;DHT22;1948;53.250;10.412;2023-10-31T03:03:36;12.70;99.90
3866;DHT22;1948;53.250;10.412;2023-10-31T03:06:05;12.70;99.90
3866;DHT22;1948;53.250;10.412;2023-10-31T03:08:32;12.70;99.90
3866;DHT22;1948;53.250;10.412;2023-10-31T03:11:01;12.70;99.90
3866;DHT22;1948;53.250;10.412;2023-10-31T03:13:28;12.80;99.90
3866;DHT22;1948;53.250;10.412;2023-10-31T03:15:56;12.80;99.90
3866;DHT22;1948;53.250;10.412;2023-10-31T03:18:28;12.80;99.90
3866;DHT22;1948;53.250;10.412;2023-10-31T03:20:57;12.80;99.90
3866;DHT22;1948;53.250;10.412;2023-10-31T03:23:25;12.80;99.90
3866;DHT22;1948;53.250;10.412;2023-10-31T03:25:52;12.80;99.90
3866;DHT22;1948;53.250;10.412;2023-10-31T03:28:20;12.80;99.90
3866;DHT22;1948;53.250;10.412;2023-10-31T03:30:51;12.90;99.90
3866;DHT22;1948;53.250;10.412;2023-10-31T03:33:18;12.90;99.90
3866;DHT22;1948;53.250;10.412;2023-10-31T03:35:46;12.90;99.90
3866;DHT22;1948;53.250;10.412;2023-10-31T03:38:13;13.00;99.90
3866;DHT22;1948;53.250;10.412;2023-10-31T03:40:41;13.00;99.90
3866;DHT22;1948;53.250;10.412;2023-10-31T03:43:12;13.00;99.90
3866;DHT22;1948;53.250;10.412;2023-10-31T03:45:40;13.00;99.90
3866;DHT22;1948;53.250;10.412;2023-10-31T03:48:13;13.10;99.90
3866;DHT22;1948;53.250;10.412;2023-10-31T03:50:45;13.00;99.90
3866;DHT22;1948;53.250;10.412;2023-10-31T03:53:12;13.00;99.90
3866;DHT22;1948;53.250;10.412;2023-10-31T03:55:39;13.00;99.90
3866;DHT22;1948;53.250;10.412;2023-10-31T03:58:06;13.10;99.90
3866;DHT22;1948;53.250;10.412;2023-10-31T04:00:34;13.00;99.90
3866;DHT22;1948;53.250;10.412;2023-10-31T04:03:02;13.00;99.90
3866;DHT22;1948;53.250;10.412;2023-10-31T04:05:29;13.00;99.90
3866;DHT22;1948;53.250;10.412;2023-10-31T04:07:57;13.00;99.90
3866;DHT22;1948;53.250;10.412;2023-10-31T04:10:24;13.00;99.90
3866;DHT22;1948;53.250;10.412;2023-10-31T04:12:52;13.00;99.90
3866;DHT22;1948;53.250;10.412;2023-10-31T04:15:24;13.00;99.90
3866;DHT22;1948;53.250;10.412;2023-10-31T04:17:51;13.10;99.90
3866;DHT22;1948;53.250;10.412;2023-10-31T04:20:21;13.10;99.90
3866;DHT22;1948;53.250;10.412;2023-10-31T04:22:49;13.10;99.90
3866;DHT22;1948;53.250;10.412;2023-10-31T04:25:16;13.10;99.90
3866;DHT22;1948;53.250;10.412;2023-10-31T04:27:43;13.20;99.90
3866;DHT22;1948;53.250;10.412;2023-10-31T04:30:11;13.20;99.90
3866;DHT22;1948;53.250;10.412;2023-10-31T04:32:43;13.20;99.90
3866;DHT22;1948;53.250;10.412;2023-10-31T04:35:12;13.30;99.90
3866;DHT22;1948;53.250;10.412;2023-10-31T04:37:40;13.30;99.90
3866;DHT22;1948;53.250;10.412;2023-10-31T04:40:07;13.40;99.90
3866;DHT22;1948;53.250;10.412;2023-10-31T04:42:39;13.40;99.90
3866;DHT22;1948;53.250;10.412;2023-10-31T04:45:12;13.40;99.90
3866;DHT22;1948;53.250;10.412;2023-10-31T04:47:39;13.40;99.90
3866;DHT22;1948;53.250;10.412;2023-10-31T04:50:07;13.30;99.90
3866;DHT22;1948;53.250;10.412;2023-10-31T04:52:37;13.40;99.90
3866;DHT22;1948;53.250;10.412;2023-10-31T04:55:05;13.40;99.90
3866;DHT22;1948;53.250;10.412;2023-10-31T04:57:35;13.40;99.90
3866;DHT22;1948;53.250;10.412;2023-10-31T05:00:02;13.40;99.90
3866;DHT22;1948;53.250;10.412;2023-10-31T05:02:32;13.40;99.90
3866;DHT22;1948;53.250;10.412;2023-10-31T05:04:59;13.40;99.90
3866;DHT22;1948;53.250;10.412;2023-10-31T05:07:27;13.40;99.90
3866;DHT22;1948;53.250;10.412;2023-10-31T05:09:54;13.40;99.90
3866;DHT22;1948;53.250;10.412;2023-10-31T05:12:21;13.50;99.90
3866;DHT22;1948;53.250;10.412;2023-10-31T05:14:50;13.40;99.90
3866;DHT22;1948;53.250;10.412;2023-10-31T05:17:17;13.40;99.90
3866;DHT22;1948;53.250;10.412;2023-10-31T05:19:45;13.40;99.90
3866;DHT22;1948;53.250;10.412;2023-10-31T05:22:12;13.40;99.90
3866;DHT22;1948;53.250;10.412;2023-10-31T05:24:41;13.40;99.90
3866;DHT22;1948;53.250;10.412;2023-10-31T05:27:11;13.40;99.90
3866;DHT22;1948;53.250;10.412;2023-10-31T05:29:39;13.40;99.90
3866;DHT22;1948;53.250;10.412;2023-10-31T05:32:08;13.40;99.90
3866;DHT22;1948;53.250;10.412;2023-10-31T05:34:36;13.40;99.90
3866;DHT22;1948;53.250;10.412;2023-10-31T05:37:05;13.30;99.90
3866;DHT22;1948;53.250;10.412;2023-10-31T05:39:32;13.40;99.90
3866;DHT22;1948;53.250;10.412;2023-10-31T05:42:00;13.40;99.90
3866;DHT22;1948;53.250;10.412;2023-10-31T05:44:27;13.40;99.90
3866;DHT22;1948;53.250;10.412;2023-10-31T05:46:55;13.30;99.90
3866;DHT22;1948;53.250;10.412;2023-10-31T05:49:22;13.30;99.90
3866;DHT22;1948;53.250;10.412;2023-10-31T05:51:52;13.30;99.90
3866;DHT22;1948;53.250;10.412;2023-10-31T05:54:22;13.40;99.90
3866;DHT22;1948;53.250;10.412;2023-10-31T05:56:55;13.30;99.90
3866;DHT22;1948;53.250;10.412;2023-10-31T05:59:22;13.30;99.90
3866;DHT22;1948;53.250;10.412;2023-10-31T06:01:49;13.30;99.90
3866;DHT22;1948;53.250;10.412;2023-10-31T06:04:17;13.30;99.90
3866;DHT22;1948;53.250;10.412;2023-10-31T06:06:49;13.30;99.90
3866;DHT22;1948;53.250;10.412;2023-10-31T06:09:16;13.20;99.90
3866;DHT22;1948;53.250;10.412;2023-10-31T06:11:44;13.20;99.90
3866;DHT22;1948;53.250;10.412;2023-10-31T06:14:14;13.20;99.90
3866;DHT22;1948;53.250;10.412;2023-10-31T06:16:42;13.00;99.90
3866;DHT22;1948;53.250;10.412;2023-10-31T06:19:10;12.90;99.90
3866;DHT22;1948;53.250;10.412;2023-10-31T06:21:37;12.80;99.90
3866;DHT22;1948;53.250;10.412;2023-10-31T06:24:07;12.80;99.90
3866;DHT22;1948;53.250;10.412;2023-10-31T06:26:39;12.70;99.90
3866;DHT22;1948;53.250;10.412;2023-10-31T06:29:07;12.70;99.90
3866;DHT22;1948;53.250;10.412;2023-10-31T06:31:54;12.70;99.90
3866;DHT22;1948;53.250;10.412;2023-10-31T06:34:24;12.70;99.90
3866;DHT22;1948;53.250;10.412;2023-10-31T06:36:51;12.70;99.90
3866;DHT22;1948;53.250;10.412;2023-10-31T06:39:19;12.70;99.90
3866;DHT22;1948;53.250;10.412;2023-10-31T06:41:48;12.50;99.90
3866;DHT22;1948;53.250;10.412;2023-10-31T06:44:18;12.60;99.90
3866;DHT22;1948;53.250;10.412;2023-10-31T06:46:50;12.50;99.90
3866;DHT22;1948;53.250;10.412;2023-10-31T06:49:20;12.50;99.90
3866;DHT22;1948;53.250;10.412;2023-10-31T06:51:49;12.40;99.90
3866;DHT22;1948;53.250;10.412;2023-10-31T06:54:16;12.40;99.90
3866;DHT22;1948;53.250;10.412;2023-10-31T06:56:43;12.30;99.90
3866;DHT22;1948;53.250;10.412;2023-10-31T06:59:10;12.20;99.90
3866;DHT22;1948;53.250;10.412;2023-10-31T07:01:40;12.20;99.90
3866;DHT22;1948;53.250;10.412;2023-10-31T07:04:07;12.10;99.90
3866;DHT22;1948;53.250;10.412;2023-10-31T07:06:35;12.10;99.90
3866;DHT22;1948;53.250;10.412;2023-10-31T07:09:05;12.20;99.90
3866;DHT22;1948;53.250;10.412;2023-10-31T07:11:32;12.10;99.90
3866;DHT22;1948;53.250;10.412;2023-10-31T07:14:01;12.10;99.90
3866;DHT22;1948;53.250;10.412;2023-10-31T07:16:32;12.00;99.90
3866;DHT22;1948;53.250;10.412;2023-10-31T07:19:00;11.90;99.90
3866;DHT22;1948;53.250;10.412;2023-10-31T07:21:27;11.80;99.90
3866;DHT22;1948;53.250;10.412;2023-10-31T07:23:59;11.80;99.90
3866;DHT22;1948;53.250;10.412;2023-10-31T07:26:31;11.80;99.90
3866;DHT22;1948;53.250;10.412;2023-10-31T07:28:58;11.80;99.90
3866;DHT22;1948;53.250;10.412;2023-10-31T07:31:29;11.80;99.90
3866;DHT22;1948;53.250;10.412;2023-10-31T07:33:56;11.80;99.90
3866;DHT22;1948;53.250;10.412;2023-10-31T07:36:28;11.80;99.90
3866;DHT22;1948;53.250;10.412;2023-10-31T07:38:57;11.90;99.90
3866;DHT22;1948;53.250;10.412;2023-10-31T07:41:25;11.80;99.90
3866;DHT22;1948;53.250;10.412;2023-10-31T07:43:54;11.80;99.90
3866;DHT22;1948;53.250;10.412;2023-10-31T07:46:21;11.80;99.90
3866;DHT22;1948;53.250;10.412;2023-10-31T07:48:50;11.90;99.90
3866;DHT22;1948;53.250;10.412;2023-10-31T07:51:19;11.80;99.90
3866;DHT22;1948;53.250;10.412;2023-10-31T07:53:46;11.90;99.90
3866;DHT22;1948;53.250;10.412;2023-10-31T07:56:19;11.90;99.90
3866;DHT22;1948;53.250;10.412;2023-10-31T07:58:50;12.00;99.90
3866;DHT22;1948;53.250;10.412;2023-10-31T08:01:18;12.10;99.90
3866;DHT22;1948;53.250;10.412;2023-10-31T08:03:47;12.00;99.90
3866;DHT22;1948;53.250;10.412;2023-10-31T08:06:15;12.00;99.90
3866;DHT22;1948;53.250;10.412;2023-10-31T08:08:42;12.00;99.90
3866;DHT22;1948;53.250;10.412;2023-10-31T08:11:12;12.00;99.90
3866;DHT22;1948;53.250;10.412;2023-10-31T08:13:39;12.10;99.90
3866;DHT22;1948;53.250;10.412;2023-10-31T08:16:07;12.10;99.90
3866;DHT22;1948;53.250;10.412;2023-10-31T08:18:37;12.10;99.90
3866;DHT22;1948;53.250;10.412;2023-10-31T08:21:04;12.10;99.90
3866;DHT22;1948;53.250;10.412;2023-10-31T08:23:34;12.00;99.90
3866;DHT22;1948;53.250;10.412;2023-10-31T08:26:02;12.00;99.90
3866;DHT22;1948;53.250;10.412;2023-10-31T08:28:29;11.90;99.90
3866;DHT22;1948;53.250;10.412;2023-10-31T08:30:58;11.90;99.90
3866;DHT22;1948;53.250;10.412;2023-10-31T08:33:25;12.00;99.90
3866;DHT22;1948;53.250;10.412;2023-10-31T08:35:53;12.00;99.90
3866;DHT22;1948;53.250;10.412;2023-10-31T08:38:20;11.90;99.90
3866;DHT22;1948;53.250;10.412;2023-10-31T08:40:58;11.80;99.90
3866;DHT22;1948;53.250;10.412;2023-10-31T08:43:26;11.80;99.90
3866;DHT22;1948;53.250;10.412;2023-10-31T08:45:54;11.90;99.90
3866;DHT22;1948;53.250;10.412;2023-10-31T08:48:21;11.90;99.90
3866;DHT22;1948;53.250;10.412;2023-10-31T08:50:48;11.90;99.90
3866;DHT22;1948;53.250;10.412;2023-10-31T08:53:16;11.90;99.90
3866;DHT22;1948;53.250;10.412;2023-10-31T08:55:46;11.90;99.90
3866;DHT22;1948;53.250;10.412;2023-10-31T08:58:14;11.90;99.90
3866;DHT22;1948;53.250;10.412;2023-10-31T09:00:41;11.90;99.90
3866;DHT22;1948;53.250;10.412;2023-10-31T09:03:11;11.80;99.90
3866;DHT22;1948;53.250;10.412;2023-10-31T09:05:39;11.70;99.90
3866;DHT22;1948;53.250;10.412;2023-10-31T09:08:06;11.80;99.90
3866;DHT22;1948;53.250;10.412;2023-10-31T09:10:36;11.80;99.90
3866;DHT22;1948;53.250;10.412;2023-10-31T09:13:06;11.80;99.90
3866;DHT22;1948;53.250;10.412;2023-10-31T09:15:36;11.70;99.90
3866;DHT22;1948;53.250;10.412;2023-10-31T09:18:06;11.70;99.90
3866;DHT22;1948;53.250;10.412;2023-10-31T09:20:36;11.60;99.90
3866;DHT22;1948;53.250;10.412;2023-10-31T09:23:04;11.60;99.90
3866;DHT22;1948;53.250;10.412;2023-10-31T09:25:33;11.60;99.90
3866;DHT22;1948;53.250;10.412;2023-10-31T09:28:01;11.60;99.90
3866;DHT22;1948;53.250;10.412;2023-10-31T09:30:28;11.60;99.90
3866;DHT22;1948;53.250;10.412;2023-10-31T09:32:57;11.80;99.90
3866;DHT22;1948;53.250;10.412;2023-10-31T09:35:27;11.80;99.90
3866;DHT22;1948;53.250;10.412;2023-10-31T09:38:00;11.90;99.90
3866;DHT22;1948;53.250;10.412;2023-10-31T09:40:38;11.90;99.90
3866;DHT22;1948;53.250;10.412;2023-10-31T09:43:06;11.90;99.90
3866;DHT22;1948;53.250;10.412;2023-10-31T09:45:33;12.00;99.90
3866;DHT22;1948;53.250;10.412;2023-10-31T09:48:01;12.10;99.90
3866;DHT22;1948;53.250;10.412;2023-10-31T09:50:32;12.10;99.90
3866;DHT22;1948;53.250;10.412;2023-10-31T09:53:03;12.20;99.90
3866;DHT22;1948;53.250;10.412;2023-10-31T09:55:34;12.30;99.90
3866;DHT22;1948;53.250;10.412;2023-10-31T09:58:01;12.30;99.90
3866;DHT22;1948;53.250;10.412;2023-10-31T10:00:31;12.30;99.90
3866;DHT22;1948;53.250;10.412;2023-10-31T10:03:04;12.30;99.90
3866;DHT22;1948;53.250;10.412;2023-10-31T10:05:38;12.20;99.90
3866;DHT22;1948;53.250;10.412;2023-10-31T10:08:09;12.20;99.90
3866;DHT22;1948;53.250;10.412;2023-10-31T10:10:37;12.20;99.90
3866;DHT22;1948;53.250;10.412;2023-10-31T10:13:07;12.20;99.90
3866;DHT22;1948;53.250;10.412;2023-10-31T10:15:48;12.30;99.90
3866;DHT22;1948;53.250;10.412;2023-10-31T10:18:28;12.30;99.90
3866;DHT22;1948;53.250;10.412;2023-10-31T10:21:11;12.30;99.90
3866;DHT22;1948;53.250;10.412;2023-10-31T10:23:41;12.30;99.90
3866;DHT22;1948;53.250;10.412;2023-10-31T10:26:08;12.40;99.90
3866;DHT22;1948;53.250;10.412;2023-10-31T10:28:36;12.50;99.90
3866;DHT22;1948;53.250;10.412;2023-10-31T10:31:03;12.50;99.90
3866;DHT22;1948;53.250;10.412;2023-10-31T10:33:30;12.60;99.90
3866;DHT22;1948;53.250;10.412;2023-10-31T10:35:59;12.80;99.90
3866;DHT22;1948;53.250;10.412;2023-10-31T10:38:27;13.00;99.90
3866;DHT22;1948;53.250;10.412;2023-10-31T10:40:58;13.10;99.90
3866;DHT22;1948;53.250;10.412;2023-10-31T10:43:28;13.10;99.90
3866;DHT22;1948;53.250;10.412;2023-10-31T10:45:59;13.30;99.90
3866;DHT22;1948;53.250;10.412;2023-10-31T10:48:34;13.60;99.90
3866;DHT22;1948;53.250;10.412;2023-10-31T10:54:31;15.40;99.90
3866;DHT22;1948;53.250;10.412;2023-10-31T10:57:09;15.50;99.90
3866;DHT22;1948;53.250;10.412;2023-10-31T10:59:43;15.30;99.90
3866;DHT22;1948;53.250;10.412;2023-10-31T11:02:18;15.40;99.90
3866;DHT22;1948;53.250;10.412;2023-10-31T11:04:48;15.00;99.90
3866;DHT22;1948;53.250;10.412;2023-10-31T11:07:18;14.80;99.90
3866;DHT22;1948;53.250;10.412;2023-10-31T11:09:45;14.70;99.90
3866;DHT22;1948;53.250;10.412;2023-10-31T11:12:18;14.70;99.90
3866;DHT22;1948;53.250;10.412;2023-10-31T11:14:47;14.80;99.90
3866;DHT22;1948;53.250;10.412;2023-10-31T11:17:25;14.80;99.90
3866;DHT22;1948;53.250;10.412;2023-10-31T11:19:55;15.00;99.90
3866;DHT22;1948;53.250;10.412;2023-10-31T11:22:23;14.80;99.90
3866;DHT22;1948;53.250;10.412;2023-10-31T11:24:53;14.70;99.90
3866;DHT22;1948;53.250;10.412;2023-10-31T11:27:22;14.50;99.90
3866;DHT22;1948;53.250;10.412;2023-10-31T11:29:50;14.30;99.90
3866;DHT22;1948;53.250;10.412;2023-10-31T11:32:17;14.20;99.90
3866;DHT22;1948;53.250;10.412;2023-10-31T11:34:46;14.00;99.90
3866;DHT22;1948;53.250;10.412;2023-10-31T11:37:31;13.90;99.90
3866;DHT22;1948;53.250;10.412;2023-10-31T11:42:43;13.80;99.90
3866;DHT22;1948;53.250;10.412;2023-10-31T11:45:42;13.80;99.90
3866;DHT22;1948;53.250;10.412;2023-10-31T11:48:15;14.00;99.90
3866;DHT22;1948;53.250;10.412;2023-10-31T11:50:43;14.10;99.90
3866;DHT22;1948;53.250;10.412;2023-10-31T11:53:12;14.00;99.90
3866;DHT22;1948;53.250;10.412;2023-10-31T11:58:17;14.10;99.90
3866;DHT22;1948;53.250;10.412;2023-10-31T12:01:05;14.20;99.90
3866;DHT22;1948;53.250;10.412;2023-10-31T12:03:42;14.10;99.90
3866;DHT22;1948;53.250;10.412;2023-10-31T12:06:10;14.00;99.90
3866;DHT22;1948;53.250;10.412;2023-10-31T12:08:41;13.80;99.90
3866;DHT22;1948;53.250;10.412;2023-10-31T12:11:15;13.80;99.90
3866;DHT22;1948;53.250;10.412;2023-10-31T12:14:03;13.80;99.90
3866;DHT22;1948;53.250;10.412;2023-10-31T12:16:34;13.80;99.90
3866;DHT22;1948;53.250;10.412;2023-10-31T12:19:05;13.60;99.90
3866;DHT22;1948;53.250;10.412;2023-10-31T12:24:06;13.60;99.90
3866;DHT22;1948;53.250;10.412;2023-10-31T12:26:38;13.50;99.90
3866;DHT22;1948;53.250;10.412;2023-10-31T12:29:10;13.50;99.90
3866;DHT22;1948;53.250;10.412;2023-10-31T12:31:47;13.40;99.90
3866;DHT22;1948;53.250;10.412;2023-10-31T12:34:21;13.40;99.90
3866;DHT22;1948;53.250;10.412;2023-10-31T12:36:52;13.30;99.90
3866;DHT22;1948;53.250;10.412;2023-10-31T12:39:26;13.40;99.90
3866;DHT22;1948;53.250;10.412;2023-10-31T12:41:56;13.40;99.90
3866;DHT22;1948;53.250;10.412;2023-10-31T12:44:26;13.60;99.90
3866;DHT22;1948;53.250;10.412;2023-10-31T12:46:55;13.60;99.90
3866;DHT22;1948;53.250;10.412;2023-10-31T12:49:22;13.70;99.90
3866;DHT22;1948;53.250;10.412;2023-10-31T12:52:00;13.70;99.90
3866;DHT22;1948;53.250;10.412;2023-10-31T12:54:29;13.70;99.90
3866;DHT22;1948;53.250;10.412;2023-10-31T12:57:15;13.70;99.90
3866;DHT22;1948;53.250;10.412;2023-10-31T12:59:45;13.60;99.90
3866;DHT22;1948;53.250;10.412;2023-10-31T13:02:16;13.60;99.90
3866;DHT22;1948;53.250;10.412;2023-10-31T13:04:47;13.60;99.90
3866;DHT22;1948;53.250;10.412;2023-10-31T13:07:26;13.50;99.90
3866;DHT22;1948;53.250;10.412;2023-10-31T13:09:54;13.50;99.90
3866;DHT22;1948;53.250;10.412;2023-10-31T13:12:23;13.40;99.90
3866;DHT22;1948;53.250;10.412;2023-10-31T13:14:53;13.30;99.90
3866;DHT22;1948;53.250;10.412;2023-10-31T13:17:20;13.30;99.90
3866;DHT22;1948;53.250;10.412;2023-10-31T13:19:47;13.40;99.90
3866;DHT22;1948;53.250;10.412;2023-10-31T13:22:15;13.50;99.90
3866;DHT22;1948;53.250;10.412;2023-10-31T13:24:44;13.60;99.90
3866;DHT22;1948;53.250;10.412;2023-10-31T13:27:12;13.60;99.90
3866;DHT22;1948;53.250;10.412;2023-10-31T13:29:43;13.70;99.90
3866;DHT22;1948;53.250;10.412;2023-10-31T13:32:12;13.80;99.90
3866;DHT22;1948;53.250;10.412;2023-10-31T13:34:39;13.80;99.90
3866;DHT22;1948;53.250;10.412;2023-10-31T13:37:07;13.90;99.90
3866;DHT22;1948;53.250;10.412;2023-10-31T13:39:35;14.10;99.90
3866;DHT22;1948;53.250;10.412;2023-10-31T13:42:02;15.40;99.90
3866;DHT22;1948;53.250;10.412;2023-10-31T13:44:29;16.00;99.90
3866;DHT22;1948;53.250;10.412;2023-10-31T13:46:59;16.20;99.90
3866;DHT22;1948;53.250;10.412;2023-10-31T13:49:29;16.30;99.90
3866;DHT22;1948;53.250;10.412;2023-10-31T13:51:57;16.20;99.90
3866;DHT22;1948;53.250;10.412;2023-10-31T13:54:24;16.20;99.90
3866;DHT22;1948;53.250;10.412;2023-10-31T13:56:57;16.10;99.90
3866;DHT22;1948;53.250;10.412;2023-10-31T13:59:29;15.80;99.90
3866;DHT22;1948;53.250;10.412;2023-10-31T14:01:59;15.50;99.90
3866;DHT22;1948;53.250;10.412;2023-10-31T14:04:28;15.20;99.90
3866;DHT22;1948;53.250;10.412;2023-10-31T14:06:57;15.00;99.90
3866;DHT22;1948;53.250;10.412;2023-10-31T14:09:24;14.80;99.90
3866;DHT22;1948;53.250;10.412;2023-10-31T14:11:51;14.50;99.90
3866;DHT22;1948;53.250;10.412;2023-10-31T14:14:20;14.30;99.90
3866;DHT22;1948;53.250;10.412;2023-10-31T14:16:50;14.20;99.90
3866;DHT22;1948;53.250;10.412;2023-10-31T14:19:17;14.10;99.90
3866;DHT22;1948;53.250;10.412;2023-10-31T14:21:45;14.10;99.90
3866;DHT22;1948;53.250;10.412;2023-10-31T14:24:13;14.20;99.90
3866;DHT22;1948;53.250;10.412;2023-10-31T14:26:40;14.20;99.90
3866;DHT22;1948;53.250;10.412;2023-10-31T14:29:11;14.20;99.90
3866;DHT22;1948;53.250;10.412;2023-10-31T14:31:41;14.10;99.90
3866;DHT22;1948;53.250;10.412;2023-10-31T14:34:12;14.00;99.90
3866;DHT22;1948;53.250;10.412;2023-10-31T14:36:43;13.90;99.90
3866;DHT22;1948;53.250;10.412;2023-10-31T14:39:40;13.80;99.90
3866;DHT22;1948;53.250;10.412;2023-10-31T14:42:08;13.70;99.90
3866;DHT22;1948;53.250;10.412;2023-10-31T14:44:36;13.60;99.90
3866;DHT22;1948;53.250;10.412;2023-10-31T14:47:03;13.50;99.90
3866;DHT22;1948;53.250;10.412;2023-10-31T14:49:32;13.40;99.90
3866;DHT22;1948;53.250;10.412;2023-10-31T14:51:59;13.40;99.90
3866;DHT22;1948;53.250;10.412;2023-10-31T14:54:28;13.30;99.90
3866;DHT22;1948;53.250;10.412;2023-10-31T14:56:57;13.10;99.90
3866;DHT22;1948;53.250;10.412;2023-10-31T14:59:24;13.10;99.90
3866;DHT22;1948;53.250;10.412;2023-10-31T15:01:51;13.00;99.90
3866;DHT22;1948;53.250;10.412;2023-10-31T15:04:22;12.80;99.90
3866;DHT22;1948;53.250;10.412;2023-10-31T15:06:52;12.60;99.90
3866;DHT22;1948;53.250;10.412;2023-10-31T15:09:19;12.40;99.90
3866;DHT22;1948;53.250;10.412;2023-10-31T15:11:47;12.20;99.90
3866;DHT22;1948;53.250;10.412;2023-10-31T15:14:19;11.90;99.90
3866;DHT22;1948;53.250;10.412;2023-10-31T15:16:47;11.70;99.90
3866;DHT22;1948;53.250;10.412;2023-10-31T15:19:14;11.60;99.90
3866;DHT22;1948;53.250;10.412;2023-10-31T15:21:41;11.50;99.90
3866;DHT22;1948;53.250;10.412;2023-10-31T15:24:08;11.40;99.90
3866;DHT22;1948;53.250;10.412;2023-10-31T15:26:38;11.30;99.90
3866;DHT22;1948;53.250;10.412;2023-10-31T15:29:08;11.20;99.90
3866;DHT22;1948;53.250;10.412;2023-10-31T15:31:43;11.20;99.90
3866;DHT22;1948;53.250;10.412;2023-10-31T15:34:14;11.10;99.90
3866;DHT22;1948;53.250;10.412;2023-10-31T15:36:46;11.00;99.90
3866;DHT22;1948;53.250;10.412;2023-10-31T15:39:13;10.90;99.90
3866;DHT22;1948;53.250;10.412;2023-10-31T15:41:40;10.80;99.90
3866;DHT22;1948;53.250;10.412;2023-10-31T15:44:08;10.70;99.90
3866;DHT22;1948;53.250;10.412;2023-10-31T15:46:35;10.60;99.90
3866;DHT22;1948;53.250;10.412;2023-10-31T15:49:05;10.50;99.90
3866;DHT22;1948;53.250;10.412;2023-10-31T15:51:35;10.40;99.90
3866;DHT22;1948;53.250;10.412;2023-10-31T15:54:02;10.30;99.90
3866;DHT22;1948;53.250;10.412;2023-10-31T15:56:33;10.20;99.90
3866;DHT22;1948;53.250;10.412;2023-10-31T15:59:00;10.10;99.90
3866;DHT22;1948;53.250;10.412;2023-10-31T16:01:29;10.00;99.90
3866;DHT22;1948;53.250;10.412;2023-10-31T16:03:59;9.80;99.90
3866;DHT22;1948;53.250;10.412;2023-10-31T16:06:30;9.70;99.90
3866;DHT22;1948;53.250;10.412;2023-10-31T16:08:59;9.70;99.90
3866;DHT22;1948;53.250;10.412;2023-10-31T16:11:27;9.50;99.90
3866;DHT22;1948;53.250;10.412;2023-10-31T16:13:59;9.50;99.90